Have a Safe July 4th! 

Flight Track Log - Related Links

Times and Time Zones

All times are in EST time to prevent confusion due to time zone crossing. See the N400PU flight status page for this flight to view local times or setup timezone preferences in your user account.

Time Position Orientation Groundspeed Altitude Reporting Facility
EST Latitude Longitude Course Direction KTS MPH feet Rate Location/Type
Thu 07:22:03 AM 40.4294 -86.8481 64° Northeast 270 311 3,300  Level Chicago Center
Thu 07:23:04 AM 40.4592 -86.7569 67° East 271 312 6,000 2,410 Climbing Chicago Center
Thu 07:24:05 AM 40.4922 -86.6586 66° East 285 328 8,200 1,854 Climbing Chicago Center
Thu 07:25:00 AM 40.7150 -86.3244 57° Northeast  Level Estimated
Thu 07:25:07 AM 40.5275 -86.5547 66° East 301 346 9,800  Level Chicago Center
Thu 07:26:00 AM 40.7651 -86.2218 57° Northeast  Level Estimated
Thu 07:26:08 AM 40.5642 -86.4411 67° East 328 377 11,700  Level Chicago Center
Thu 07:27:00 AM 40.8156 -86.1180 64° Northeast  Level Estimated
Thu 07:27:09 AM 40.6031 -86.3267 66° East 341 392 13,300  Level Chicago Center
Thu 07:28:10 AM 40.6519 -86.1808 66° East 361 415 15,300 1,707 Climbing Chicago Center
Thu 07:29:12 AM 40.6911 -86.0611 67° East 363 418 16,800 878 Climbing Chicago Center
Thu 07:30:13 AM 40.7328 -85.9344 66° East 376 433 17,100 541 Climbing Chicago Center
Thu 07:31:14 AM 40.7781 -85.7972 66° East 406 467 17,900 976 Climbing Chicago Center
Thu 07:32:16 AM 40.8211 -85.6611 67° East 405 466 19,100 1,268 Climbing Chicago Center
Thu 07:33:17 AM 40.8653 -85.5269 66° East 402 463 20,500 927 Climbing Chicago Center
Thu 07:34:19 AM 40.9083 -85.3925 67° East 401 461 21,000 244 Climbing Chicago Center
Thu 07:35:20 AM 40.9625 -85.2156 68° East 430 495 21,000 -244 Level Chicago Center
Thu 07:36:22 AM 41.0094 -85.0672 67° East 438 504 20,500 -732 Descending Chicago Center
Thu 07:37:23 AM 41.0578 -84.9169 67° East 443 510 19,500 -1,024 Descending Chicago Center
Thu 07:38:25 AM 41.1047 -84.7678 67° East 444 511 18,400 -878 Descending Chicago Center
Thu 07:39:26 AM 41.1519 -84.6186 67° East 443 510 17,700 -829 Descending Chicago Center
Thu 07:40:28 AM 41.1978 -84.4706 68° East 438 504 16,700 -976 Descending Chicago Center
Thu 07:41:29 AM 41.2425 -84.3269 67° East 428 493 15,700 -976 Descending Chicago Center
Thu 07:42:31 AM 41.2936 -84.1581 68° East 416 479 14,700 -927 Descending Chicago Center
Thu 07:43:32 AM 41.3375 -84.0172 67° East 416 479 13,800 -878 Descending Chicago Center
Thu 07:44:34 AM 41.3797 -83.8794 68° East 408 470 12,900 -1,041 Descending Chicago Center
Thu 07:45:33 AM 41.4225 -83.7364 68° East 399 459 11,700 -1,140 Descending Cleveland Center
Thu 07:46:35 AM 41.4653 -83.6017 67° East 397 457 10,600 -810 Descending Cleveland Center
Thu 07:47:39 AM 41.5164 -83.4744 62° Northeast 361 415 10,000 -340 Descending Cleveland Center
Thu 07:48:21 AM 41.5506 -83.3872 62° Northeast 367 422 10,000  Level Cleveland Center
Thu 07:48:39 AM 41.5631 -83.3614 57° Northeast 370 426 10,000  Level Cleveland Center
Thu 07:49:16 AM 41.5950 -83.2761 63° Northeast 371 427 10,000  Level Cleveland Center
Thu 07:49:41 AM 41.6106 -83.2400 60° Northeast 371 427 10,000  Level Cleveland Center
Thu 07:50:17 AM 41.6469 -83.1464 62° Northeast 372 428 10,000  Level Cleveland Center
Thu 07:50:43 AM 41.6581 -83.1186 62° Northeast 371 427 10,000  Level Cleveland Center
Thu 07:51:18 AM 41.6911 -83.0350 62° Northeast 331 381 10,000  Level Cleveland Center
Thu 07:51:45 AM 41.7103 -82.9903 60° Northeast 334 384 10,000  Level Cleveland Center
Thu 07:52:19 AM 41.7550 -82.9653 23° Northeast 304 350 10,000 -97 Level Cleveland Center
Thu 07:52:47 AM 41.7897 -82.9633 North 301 346 9,900 -1,151 Descending Cleveland Center
Thu 07:53:32 AM 41.8536 -82.9617 North 283 326 8,600 -1,645 Descending Cleveland Center
Thu 07:53:49 AM 41.8694 -82.9617 360° North 291 335 8,200 -2,262 Descending Cleveland Center
Thu 07:54:33 AM 41.9353 -82.9614 360° North 287 330 6,300 -2,226 Descending Cleveland Center
Thu 07:54:51 AM 41.9489 -82.9622 357° North 288 331 5,900 -1,745 Descending Cleveland Center
Thu 07:55:28 AM 42.0047 -82.9594 North 274 315 4,700 -1,574 Descending Cleveland Center
Thu 07:55:52 AM 42.0239 -82.9597 359° North 278 320 4,300 -1,444 Descending Cleveland Center
Thu 07:56:22 AM 42.0736 -82.9603 360° North 269 310 3,400 -1,452 Descending Cleveland Center
Thu 07:56:54 AM 42.1119 -82.9569 North 268 308 2,800 -985 Descending Cleveland Center
Thu 07:57:29 AM 42.1472 -82.9561 North 233 268 2,300 -667 Descending Cleveland Center
Thu 07:57:57 AM 42.1758 -82.9536 North 244 281 2,100 -218 Descending Cleveland Center
Thu 07:58:24 AM 42.1997 -82.9547 358° North 190 219 2,100  Level Cleveland Center
Thu 07:58:59 AM 42.2289 -82.9522 North 202 232 2,100  Level Cleveland Center
Thu 07:59:25 AM 42.2419 -82.9239 58° Northeast 186 214 2,100 -290 Level Cleveland Center
Thu 08:00:01 AM 42.2531 -82.8889 67° East 191 220 1,800 -590 Descending Cleveland Center
Thu 08:00:26 AM 42.2733 -82.8661 40° Northeast 179 206 1,500 -387 Descending Cleveland Center
Thu 08:01:03 AM 42.2917 -82.8739 343° North 178 205 1,400 -273 Descending Cleveland Center
Thu 08:01:32 AM 42.2978 -82.9058 285° West 145 167 1,200 -387 Descending Cleveland Center
Thu 08:02:05 AM 42.2925 -82.9197 243° Southwest 150 173 1,000 -364 Descending Cleveland Center

Login

Don't have an account? Register now (free) for customized features, flight alerts, and more!